createdAt,value
2018-12-05T00:01:45.596Z,101617.88
2018-12-05T00:04:14.921Z,101615.95
2018-12-05T00:06:44.125Z,101617.36
2018-12-05T00:09:13.515Z,101618.55
2018-12-05T00:11:42.787Z,101618.62
2018-12-05T00:14:12.350Z,101625.66
2018-12-05T00:16:42.025Z,101620.45
2018-12-05T00:19:11.507Z,101626.48
2018-12-05T00:21:40.964Z,101634.38
2018-12-05T00:24:10.406Z,101633.63
2018-12-05T00:26:39.914Z,101638.69
2018-12-05T00:29:09.347Z,101640.70
2018-12-05T00:31:38.527Z,101638.58
2018-12-05T00:34:07.923Z,101647.58
2018-12-05T00:36:37.272Z,101647.14
2018-12-05T00:39:09.274Z,101651.30
2018-12-05T00:41:38.431Z,101658.27
2018-12-05T00:44:07.947Z,101662.77
2018-12-05T00:46:37.378Z,101668.43
2018-12-05T00:49:06.581Z,101671.36
2018-12-05T00:51:35.931Z,101668.69
2018-12-05T00:54:05.852Z,101668.23
2018-12-05T00:56:35.052Z,101683.63
2018-12-05T00:59:05.579Z,101678.30
2018-12-05T01:01:35.245Z,101683.63
2018-12-05T01:04:04.788Z,101695.77
2018-12-05T01:06:34.127Z,101691.70
2018-12-05T01:09:03.891Z,101698.70
2018-12-05T01:11:33.245Z,101699.63
2018-12-05T01:14:03.740Z,101700.37
2018-12-05T01:16:33.139Z,101709.94
2018-12-05T01:19:02.479Z,101709.94
2018-12-05T01:21:31.776Z,101716.41
2018-12-05T01:24:00.979Z,101714.25
2018-12-05T01:26:30.297Z,101712.13
2018-12-05T01:28:59.734Z,101723.89
2018-12-05T01:31:28.992Z,101718.35
2018-12-05T01:33:58.390Z,101723.48
2018-12-05T01:36:27.670Z,101729.59
2018-12-05T01:38:57.016Z,101729.34
2018-12-05T01:41:26.344Z,101730.27
2018-12-05T01:43:55.618Z,101742.25
2018-12-05T01:46:24.897Z,101736.83
2018-12-05T01:48:54.224Z,101743.95
2018-12-05T01:51:23.371Z,101744.73
2018-12-05T01:53:52.572Z,101747.12
2018-12-05T01:56:22.025Z,101758.48
2018-12-05T01:58:51.426Z,101753.77
2018-12-05T02:01:21.447Z,101757.59
2018-12-05T02:03:50.973Z,101767.03
2018-12-05T02:06:20.512Z,101770.33
2018-12-05T02:08:49.698Z,101768.09
2018-12-05T02:11:18.974Z,101777.93
2018-12-05T02:13:48.394Z,101784.37
2018-12-05T02:16:17.863Z,101777.33
2018-12-05T02:18:47.222Z,101783.96
2018-12-05T02:21:16.530Z,101787.34
2018-12-05T02:23:46.036Z,101796.37
2018-12-05T02:26:15.232Z,101793.85
2018-12-05T02:28:44.452Z,101793.08
2018-12-05T02:31:13.645Z,101804.31
2018-12-05T02:33:42.853Z,101809.52
2018-12-05T02:36:12.235Z,101812.13
2018-12-05T02:38:41.772Z,101817.21
2018-12-05T02:41:11.031Z,101819.36
2018-12-05T02:43:40.400Z,101812.85
2018-12-05T02:46:09.523Z,101820.29
2018-12-05T02:48:38.903Z,101820.97
2018-12-05T02:51:08.344Z,101820.20
2018-12-05T02:53:37.651Z,101823.36
2018-12-05T02:56:06.991Z,101825.02
2018-12-05T02:58:36.186Z,101828.77
2018-12-05T03:01:05.665Z,101829.18
2018-12-05T03:03:35.022Z,101836.50
2018-12-05T03:06:04.514Z,101846.80
2018-12-05T03:08:33.862Z,101837.35
2018-12-05T03:11:03.766Z,101653.69
2018-12-05T03:13:32.985Z,101839.05
2018-12-05T03:16:02.135Z,101838.64
2018-12-05T03:18:31.446Z,101838.16
2018-12-05T03:21:00.762Z,101842.95
2018-12-05T03:23:29.942Z,101840.07
2018-12-05T03:25:59.207Z,101839.71
2018-12-05T03:28:28.441Z,101848.22
2018-12-05T03:30:57.621Z,101853.66
2018-12-05T03:33:26.924Z,101854.52
2018-12-05T03:35:56.486Z,101857.44
2018-12-05T03:38:25.732Z,101868.20
2018-12-05T03:40:55.045Z,101871.40
2018-12-05T03:43:24.739Z,101611.06
2018-12-05T03:45:54.050Z,101870.98
2018-12-05T03:48:23.369Z,101882.58
2018-12-05T03:50:52.659Z,101874.50
2018-12-05T03:53:22.768Z,101735.45
2018-12-05T03:55:51.996Z,101877.07
2018-12-05T03:58:21.053Z,101880.83
2018-12-05T04:00:50.446Z,101897.86
2018-12-05T04:03:19.645Z,101893.22
2018-12-05T04:05:49.000Z,101892.13
2018-12-05T04:08:18.409Z,101893.17
2018-12-05T04:10:47.734Z,101896.18
2018-12-05T04:13:16.848Z,101894.73
2018-12-05T04:15:46.400Z,101897.13
2018-12-05T04:18:15.888Z,101898.84
2018-12-05T04:20:45.224Z,101902.94
2018-12-05T04:23:14.484Z,101912.23
2018-12-05T04:25:43.795Z,101903.27
2018-12-05T04:28:13.082Z,101910.37
2018-12-05T04:30:43.059Z,101917.66
2018-12-05T04:33:12.283Z,101819.86
2018-12-05T04:35:41.850Z,101918.41
2018-12-05T04:38:11.008Z,101915.97
2018-12-05T04:40:40.507Z,101917.75
2018-12-05T04:43:09.913Z,101917.78
2018-12-05T04:45:39.337Z,101915.19
2018-12-05T04:48:08.537Z,101922.02
2018-12-05T04:50:37.921Z,101925.00
2018-12-05T04:53:07.323Z,101892.34
2018-12-05T04:55:36.405Z,101926.33
2018-12-05T04:58:05.614Z,101930.91
2018-12-05T05:00:35.024Z,101930.20
2018-12-05T05:03:04.396Z,101935.27
2018-12-05T05:05:33.766Z,101934.80
2018-12-05T05:08:03.077Z,101944.23
2018-12-05T05:10:32.494Z,101942.59
2018-12-05T05:13:01.730Z,101939.41
2018-12-05T05:15:31.077Z,101945.59
2018-12-05T05:18:00.291Z,101954.08
2018-12-05T05:20:29.625Z,101952.89
2018-12-05T05:22:58.818Z,101954.52
2018-12-05T05:25:28.103Z,101952.48
2018-12-05T05:27:57.402Z,101958.64
2018-12-05T05:30:26.743Z,101961.74
2018-12-05T05:32:55.843Z,101964.64
2018-12-05T05:35:25.240Z,101973.59
2018-12-05T05:37:54.452Z,101974.32
2018-12-05T05:40:24.096Z,101983.95
2018-12-05T05:42:53.445Z,101982.06
2018-12-05T05:45:23.185Z,101984.91
2018-12-05T05:47:52.312Z,101987.47
2018-12-05T05:50:21.577Z,101987.62
2018-12-05T05:52:50.810Z,101990.32
2018-12-05T05:55:19.920Z,101988.59
2018-12-05T05:57:49.166Z,101991.34
2018-12-05T06:00:18.250Z,101992.30
2018-12-05T06:02:47.675Z,101985.98
2018-12-05T06:05:16.916Z,101998.80
2018-12-05T06:07:46.317Z,102005.00
2018-12-05T06:10:15.654Z,102004.05
2018-12-05T06:12:45.180Z,102007.77
2018-12-05T06:15:14.327Z,102000.66
2018-12-05T06:17:43.642Z,102007.94
2018-12-05T06:20:12.994Z,102005.34
2018-12-05T06:22:42.376Z,102010.53
2018-12-05T06:25:11.830Z,102020.27
2018-12-05T06:27:41.277Z,102026.42
2018-12-05T06:30:10.653Z,102021.86
2018-12-05T06:32:39.908Z,102038.27
2018-12-05T06:35:09.342Z,102030.25
2018-12-05T06:37:38.900Z,102030.98
2018-12-05T06:40:08.407Z,102039.38
2018-12-05T06:42:37.506Z,102032.11
2018-12-05T06:45:07.461Z,102032.34
2018-12-05T06:47:36.748Z,102041.08
2018-12-05T06:50:07.170Z,102036.96
2018-12-05T06:52:36.476Z,102036.06
2018-12-05T06:55:06.476Z,102033.97
2018-12-05T06:57:35.921Z,102050.59
2018-12-05T07:00:06.067Z,102055.12
2018-12-05T07:02:35.531Z,102058.17
2018-12-05T07:05:04.954Z,102047.89
2018-12-05T07:07:34.198Z,102056.48
2018-12-05T07:10:03.498Z,102065.08
2018-12-05T07:12:32.809Z,102066.78
2018-12-05T07:15:02.249Z,102067.75
2018-12-05T07:17:31.608Z,102063.22
2018-12-05T07:20:00.766Z,102067.58
2018-12-05T07:22:30.166Z,102071.96
2018-12-05T07:24:59.412Z,102070.66
2018-12-05T07:27:28.748Z,102075.17
2018-12-05T07:29:58.374Z,102069.44
2018-12-05T07:32:27.750Z,102075.03
2018-12-05T07:34:56.953Z,102073.90
2018-12-05T07:37:26.346Z,102071.13
2018-12-05T07:39:55.858Z,102077.15
2018-12-05T07:42:25.036Z,102074.53
2018-12-05T07:44:54.431Z,102073.22
2018-12-05T07:47:25.098Z,102079.55
2018-12-05T07:49:54.339Z,102080.17
2018-12-05T07:52:23.868Z,102080.17
2018-12-05T07:54:53.377Z,102083.66
2018-12-05T07:57:23.002Z,102086.43
2018-12-05T07:59:52.315Z,102058.77
2018-12-05T08:02:22.043Z,102087.16
2018-12-05T08:04:51.296Z,102084.23
2018-12-05T08:07:20.389Z,102093.18
2018-12-05T08:09:49.511Z,102092.53
2018-12-05T08:12:19.013Z,102097.88
2018-12-05T08:14:48.196Z,102096.02
2018-12-05T08:17:17.384Z,102091.41
2018-12-05T08:19:48.242Z,101929.09
2018-12-05T08:22:17.296Z,102091.42
2018-12-05T08:24:46.608Z,102094.64
2018-12-05T08:27:15.910Z,102090.42
2018-12-05T08:29:45.224Z,102097.91
2018-12-05T08:32:14.413Z,102090.28
2018-12-05T08:34:43.650Z,102089.81
2018-12-05T08:37:12.792Z,102087.59
2018-12-05T08:39:42.476Z,102092.34
2018-12-05T08:42:11.793Z,102089.62
2018-12-05T08:44:41.016Z,102086.35
2018-12-05T08:47:10.138Z,102095.59
2018-12-05T08:49:39.469Z,102106.23
2018-12-05T08:52:08.890Z,102099.29
2018-12-05T08:54:38.437Z,102102.13
2018-12-05T08:57:07.951Z,102104.80
2018-12-05T08:59:37.351Z,102106.50
2018-12-05T09:02:06.748Z,102094.16
2018-12-05T09:04:36.060Z,102095.16
2018-12-05T09:07:05.192Z,102095.30
2018-12-05T09:09:34.445Z,102096.30
2018-12-05T09:12:04.161Z,102091.11
2018-12-05T09:14:33.592Z,102093.70
2018-12-05T09:17:03.020Z,102101.56
2018-12-05T09:19:32.257Z,102097.91
2018-12-05T09:22:01.772Z,102093.51
2018-12-05T09:24:30.964Z,102098.46
2018-12-05T09:27:00.249Z,102101.92
2018-12-05T09:29:29.550Z,102099.66
2018-12-05T09:31:58.867Z,102099.48
2018-12-05T09:34:28.148Z,102105.35
2018-12-05T09:36:57.337Z,102107.61
2018-12-05T09:39:26.685Z,102109.70
2018-12-05T09:41:55.922Z,102101.91
2018-12-05T09:44:25.135Z,102111.00
2018-12-05T09:46:54.420Z,102109.70
2018-12-05T09:49:23.883Z,102101.56
2018-12-05T09:51:53.222Z,102094.22
2018-12-05T09:54:22.422Z,102090.83
2018-12-05T09:56:51.756Z,102091.29
2018-12-05T09:59:21.022Z,102093.87
2018-12-05T10:01:50.320Z,102090.11
2018-12-05T10:04:19.668Z,102095.77
2018-12-05T10:06:48.819Z,102094.81
2018-12-05T10:09:18.135Z,102102.94
2018-12-05T10:11:47.306Z,102106.39
2018-12-05T10:14:16.685Z,102107.53
2018-12-05T10:16:45.934Z,102096.30
2018-12-05T10:19:15.139Z,102098.72
2018-12-05T10:21:44.948Z,102107.17
2018-12-05T10:24:14.176Z,102107.39
2018-12-05T10:26:43.387Z,102098.70
2018-12-05T10:29:12.639Z,102098.69
2018-12-05T10:31:44.204Z,102092.41
2018-12-05T10:34:13.265Z,102088.08
2018-12-05T10:36:42.939Z,102089.95
2018-12-05T10:39:12.425Z,102091.94
2018-12-05T10:41:41.886Z,102095.05
2018-12-05T10:44:11.493Z,102086.87
2018-12-05T10:46:40.931Z,102087.43
2018-12-05T10:49:10.423Z,102083.19
2018-12-05T10:51:39.928Z,102084.28
2018-12-05T10:54:09.557Z,102080.34
2018-12-05T10:56:38.886Z,102084.33
2018-12-05T10:59:07.987Z,102081.78
2018-12-05T11:01:42.178Z,102085.97
2018-12-05T11:04:16.547Z,102077.61
2018-12-05T11:06:50.709Z,102090.55
2018-12-05T11:09:25.456Z,102084.79
2018-12-05T11:14:05.100Z,102087.42
2018-12-05T11:16:39.383Z,102080.27
2018-12-05T11:19:13.647Z,102079.70
2018-12-05T11:21:49.890Z,102069.74
2018-12-05T11:24:24.757Z,102074.33
2018-12-05T11:26:54.034Z,102062.02
2018-12-05T11:29:23.246Z,102061.80
2018-12-05T11:31:52.521Z,102069.98
2018-12-05T11:34:22.059Z,102072.57
2018-12-05T11:36:51.656Z,102077.60
2018-12-05T11:39:21.043Z,102074.41
2018-12-05T11:41:50.300Z,102068.73
2018-12-05T11:44:19.538Z,102066.55
2018-12-05T11:46:49.187Z,102063.38
2018-12-05T11:49:18.081Z,102070.16
2018-12-05T11:51:47.302Z,102069.06
2018-12-05T11:54:16.670Z,102076.66
2018-12-05T11:56:45.967Z,102073.80
2018-12-05T11:59:15.352Z,102072.62
2018-12-05T12:01:44.645Z,102067.03
2018-12-05T12:04:14.034Z,102061.81
2018-12-05T12:06:43.353Z,102068.09
2018-12-05T12:09:12.727Z,102055.94
2018-12-05T12:11:41.865Z,102062.52
2018-12-05T12:14:11.306Z,102061.33
2018-12-05T12:16:40.818Z,102055.29
2018-12-05T12:19:10.094Z,102056.59
2018-12-05T12:21:39.522Z,102061.33
2018-12-05T12:24:08.938Z,102062.18
2018-12-05T12:26:38.382Z,102060.02
2018-12-05T12:29:07.746Z,102061.20
2018-12-05T12:31:36.753Z,102065.73
2018-12-05T12:34:05.992Z,102065.85
2018-12-05T12:36:35.318Z,102067.48
2018-12-05T12:39:07.167Z,102072.26
2018-12-05T12:41:36.579Z,102063.03
2018-12-05T12:44:07.896Z,102067.84
2018-12-05T12:46:37.133Z,102068.30
2018-12-05T12:49:06.346Z,102060.55
2018-12-05T12:51:35.586Z,102053.32
2018-12-05T12:54:04.911Z,102058.70
2018-12-05T12:56:34.236Z,102049.19
2018-12-05T12:59:04.168Z,102054.41
2018-12-05T13:01:33.365Z,102056.20
2018-12-05T13:04:02.947Z,102063.22
2018-12-05T13:06:32.238Z,102055.27
2018-12-05T13:09:01.438Z,102057.99
2018-12-05T13:11:30.538Z,102058.81
2018-12-05T13:13:59.704Z,102069.14
2018-12-05T13:16:28.875Z,102061.31
2018-12-05T13:18:58.124Z,102068.17
2018-12-05T13:21:27.480Z,102064.98
2018-12-05T13:23:58.070Z,102066.30
2018-12-05T13:26:31.186Z,102066.99
2018-12-05T13:29:00.468Z,102066.99
2018-12-05T13:31:32.567Z,102069.52
2018-12-05T13:34:02.183Z,102066.83
2018-12-05T13:36:31.389Z,102062.14
2018-12-05T13:39:00.928Z,102067.77
2018-12-05T13:41:32.547Z,102069.03
2018-12-05T13:44:01.439Z,102069.77
2018-12-05T13:46:31.589Z,102057.81
2018-12-05T13:49:00.540Z,102051.45
2018-12-05T13:51:29.482Z,102056.30
2018-12-05T13:53:58.466Z,102055.84
2018-12-05T13:56:27.552Z,102061.07
2018-12-05T13:58:56.528Z,102057.41
2018-12-05T14:01:25.419Z,102055.61
2018-12-05T14:03:54.588Z,102060.83
2018-12-05T14:06:24.337Z,102069.16
2018-12-05T14:08:53.731Z,102060.59
2018-12-05T14:11:22.999Z,102049.89
2018-12-05T14:13:52.122Z,102042.38
2018-12-05T14:16:21.103Z,102042.67
2018-12-05T14:18:50.525Z,102033.05
2018-12-05T14:21:19.421Z,102035.86
2018-12-05T14:23:48.510Z,102030.15
2018-12-05T14:26:17.601Z,102034.02
2018-12-05T14:28:46.569Z,102033.17
2018-12-05T14:31:15.563Z,102033.44
2018-12-05T14:33:44.528Z,102026.47
2018-12-05T14:36:14.063Z,102025.76
2018-12-05T14:38:43.094Z,102024.98
2018-12-05T14:41:12.058Z,102018.45
2018-12-05T14:43:41.865Z,102012.30
2018-12-05T14:46:11.542Z,102015.24
2018-12-05T14:48:40.801Z,102010.98
2018-12-05T14:51:09.964Z,102000.47
2018-12-05T14:53:39.215Z,102006.47
2018-12-05T14:56:08.467Z,102000.28
2018-12-05T14:58:37.428Z,102007.22
2018-12-05T15:01:06.470Z,102001.02
2018-12-05T15:03:35.404Z,101994.00
2018-12-05T15:06:04.494Z,101999.71
2018-12-05T15:08:33.434Z,101996.16
2018-12-05T15:11:02.719Z,101992.59
2018-12-05T15:13:32.085Z,101992.84
2018-12-05T15:16:01.707Z,101984.92
2018-12-05T15:18:30.847Z,101997.91
2018-12-05T15:21:00.500Z,101995.13
2018-12-05T15:23:29.791Z,101995.02
2018-12-05T15:25:59.022Z,101993.71
2018-12-05T15:28:28.222Z,101996.80
2018-12-05T15:30:57.895Z,101995.09
2018-12-05T15:33:31.029Z,101992.93
2018-12-05T15:36:00.506Z,101993.98
2018-12-05T15:38:29.719Z,101992.80
2018-12-05T15:40:58.855Z,101995.04
2018-12-05T15:43:28.236Z,101993.85
2018-12-05T15:45:57.827Z,101991.77
2018-12-05T15:48:27.037Z,101986.73
2018-12-05T15:50:56.490Z,101978.87
2018-12-05T15:53:25.685Z,101982.73
2018-12-05T15:55:54.861Z,101968.75
2018-12-05T15:58:24.253Z,101967.90
2018-12-05T16:00:53.441Z,101971.44
2018-12-05T16:03:23.730Z,101966.00
2018-12-05T16:05:53.160Z,101973.46
2018-12-05T16:08:22.371Z,101971.70
2018-12-05T16:10:51.613Z,101968.61
2018-12-05T16:13:20.822Z,101964.32
2018-12-05T16:15:50.834Z,101962.30
2018-12-05T16:18:20.096Z,101963.23
2018-12-05T16:20:49.642Z,101967.45
2018-12-05T16:23:18.956Z,101963.34
2018-12-05T16:25:48.147Z,101965.11
2018-12-05T16:28:17.572Z,101966.08
2018-12-05T16:30:46.669Z,101959.84
2018-12-05T16:33:15.936Z,101952.91
2018-12-05T16:35:45.217Z,101948.50
2018-12-05T16:38:14.458Z,101938.91
2018-12-05T16:40:43.851Z,101937.23
2018-12-05T16:43:13.069Z,101928.91
2018-12-05T16:45:42.495Z,101926.78
2018-12-05T16:48:12.776Z,101923.80
2018-12-05T16:50:42.281Z,101919.84
2018-12-05T16:53:11.663Z,101915.48
2018-12-05T16:55:40.953Z,101922.50
2018-12-05T16:58:10.413Z,101918.95
2018-12-05T17:00:39.967Z,101922.02
2018-12-05T17:03:09.414Z,101918.09
2018-12-05T17:05:38.861Z,101919.58
2018-12-05T17:08:08.352Z,101918.56
2018-12-05T17:10:37.832Z,101912.18
2018-12-05T17:13:06.983Z,101877.31
2018-12-05T17:15:36.232Z,101910.69
2018-12-05T17:18:06.010Z,101903.72
2018-12-05T17:20:35.414Z,101908.86
2018-12-05T17:23:04.843Z,101784.59
2018-12-05T17:25:34.832Z,101908.51
2018-12-05T17:28:04.281Z,101905.78
2018-12-05T17:30:33.730Z,101903.06
2018-12-05T17:33:03.064Z,101905.38
2018-12-05T17:35:32.347Z,101907.65
2018-12-05T17:38:01.538Z,101910.74
2018-12-05T17:40:30.723Z,101912.98
2018-12-05T17:43:00.015Z,101916.62
2018-12-05T17:45:29.372Z,101918.42
2018-12-05T17:47:59.355Z,101914.50
2018-12-05T17:50:29.167Z,101912.30
2018-12-05T17:52:58.995Z,101907.97
2018-12-05T17:55:28.643Z,101906.40
2018-12-05T17:57:58.301Z,101902.89
2018-12-05T18:00:27.464Z,101899.49
2018-12-05T18:02:56.999Z,101889.97
2018-12-05T18:05:26.215Z,101895.58
2018-12-05T18:07:55.795Z,101893.34
2018-12-05T18:10:25.256Z,101892.48
2018-12-05T18:12:55.250Z,101896.39
2018-12-05T18:15:25.363Z,101893.89
2018-12-05T18:17:54.984Z,101893.89
2018-12-05T18:20:24.209Z,101892.17
2018-12-05T18:22:54.235Z,101893.58
2018-12-05T18:25:23.948Z,101901.56
2018-12-05T18:27:53.424Z,101893.45
2018-12-05T18:30:23.762Z,101893.08
2018-12-05T18:32:53.024Z,101894.48
2018-12-05T18:35:23.518Z,101896.61
2018-12-05T18:37:53.068Z,101886.06
2018-12-05T18:40:22.866Z,101890.59
2018-12-05T18:42:52.351Z,101891.87
2018-12-05T18:45:21.800Z,101890.08
2018-12-05T18:47:51.121Z,101896.83
2018-12-05T18:50:20.365Z,101890.67
2018-12-05T18:52:49.815Z,101894.93
2018-12-05T18:55:19.166Z,101895.31
2018-12-05T18:57:48.418Z,101889.64
2018-12-05T19:00:17.774Z,101879.73
2018-12-05T19:02:46.967Z,101876.73
2018-12-05T19:05:16.085Z,101882.45
2018-12-05T19:07:45.794Z,101878.98
2018-12-05T19:10:15.114Z,101881.14
2018-12-05T19:12:44.665Z,101873.23
2018-12-05T19:15:13.852Z,101880.66
2018-12-05T19:17:43.016Z,101876.64
2018-12-05T19:20:12.339Z,101866.63
2018-12-05T19:22:42.117Z,101862.27
2018-12-05T19:25:11.977Z,101869.77
2018-12-05T19:27:41.380Z,101863.50
2018-12-05T19:30:10.849Z,101858.08
2018-12-05T19:32:40.288Z,101866.39
2018-12-05T19:35:09.744Z,101861.61
2018-12-05T19:37:39.246Z,101857.31
2018-12-05T19:40:08.799Z,101860.41
2018-12-05T19:42:38.390Z,101851.13
2018-12-05T19:45:09.030Z,101854.53
2018-12-05T19:47:38.440Z,101846.69
2018-12-05T19:50:08.111Z,101849.41
2018-12-05T19:52:37.450Z,101850.47
2018-12-05T19:55:07.206Z,101851.27
2018-12-05T19:57:36.646Z,101848.75
2018-12-05T20:00:07.213Z,101850.44
2018-12-05T20:02:36.722Z,101843.42
2018-12-05T20:05:06.454Z,101837.72
2018-12-05T20:07:35.893Z,101843.70
2018-12-05T20:10:06.184Z,101834.66
2018-12-05T20:12:35.583Z,101830.33
2018-12-05T20:15:04.962Z,101844.25
2018-12-05T20:17:34.443Z,101837.78
2018-12-05T20:20:04.310Z,101836.34
2018-12-05T20:22:33.715Z,101838.09
2018-12-05T20:25:03.061Z,101828.64
2018-12-05T20:27:32.805Z,101831.28
2018-12-05T20:30:03.234Z,101835.69
2018-12-05T20:32:32.761Z,101837.82
2018-12-05T20:35:02.125Z,101832.21
2018-12-05T20:37:31.342Z,101840.50
2018-12-05T20:40:00.710Z,101837.37
2018-12-05T20:42:29.984Z,101832.18
2018-12-05T20:44:59.537Z,101826.92
2018-12-05T20:47:28.815Z,101817.39
2018-12-05T20:49:58.325Z,101824.86
2018-12-05T20:52:28.146Z,101828.88
2018-12-05T20:59:28.948Z,101819.70
2018-12-05T21:01:58.579Z,101825.73
2018-12-05T21:04:28.659Z,101831.84
2018-12-05T21:06:58.504Z,101829.23
2018-12-05T21:09:28.047Z,101831.88
2018-12-05T21:11:57.501Z,101823.24
2018-12-05T21:14:27.265Z,101821.94
2018-12-05T21:16:57.056Z,101817.57
2018-12-05T21:19:26.908Z,101821.65
2018-12-05T21:21:56.398Z,101825.12
2018-12-05T21:24:25.974Z,101810.91
2018-12-05T21:26:55.882Z,101809.31
2018-12-05T21:29:25.408Z,101808.09
2018-12-05T21:31:54.871Z,101809.02
2018-12-05T21:34:24.684Z,101797.22
2018-12-05T21:36:54.155Z,101796.63
2018-12-05T21:39:23.578Z,101801.85
2018-12-05T21:41:54.340Z,101793.23
2018-12-05T21:44:24.222Z,101792.50
2018-12-05T21:46:54.344Z,101798.63
2018-12-05T21:49:24.025Z,101786.47
2018-12-05T21:51:53.396Z,101786.59
2018-12-05T21:54:23.466Z,101786.98
2018-12-05T21:56:52.822Z,101775.56
2018-12-05T21:59:52.879Z,101784.36
2018-12-05T22:02:22.424Z,101771.20
2018-12-05T22:04:52.236Z,101771.29
2018-12-05T22:07:21.536Z,101762.67
2018-12-05T22:09:51.017Z,101763.20
2018-12-05T22:12:20.874Z,101761.55
2018-12-05T22:14:50.498Z,101768.09
2018-12-05T22:17:20.025Z,101763.20
2018-12-05T22:19:49.420Z,101761.59
2018-12-05T22:22:18.663Z,101762.55
2018-12-05T22:24:47.842Z,101772.16
2018-12-05T22:27:17.198Z,101768.64
2018-12-05T22:29:46.624Z,101767.78
2018-12-05T22:32:15.946Z,101768.64
2018-12-05T22:34:45.279Z,101771.14
2018-12-05T22:37:14.598Z,101768.44
2018-12-05T22:39:44.114Z,101760.66
2018-12-05T22:42:13.720Z,101766.69
2018-12-05T22:44:43.179Z,101761.55
2018-12-05T22:47:13.004Z,101758.98
2018-12-05T22:49:42.439Z,101756.31
2018-12-05T22:52:11.864Z,101756.31
2018-12-05T22:54:41.911Z,101755.42
2018-12-05T22:57:15.666Z,101754.41
2018-12-05T22:59:44.933Z,101753.42
2018-12-05T23:02:14.423Z,101755.95
2018-12-05T23:04:43.812Z,101755.83
2018-12-05T23:07:13.167Z,101753.09
2018-12-05T23:09:42.729Z,101748.34
2018-12-05T23:12:12.092Z,101748.25
2018-12-05T23:14:41.734Z,101737.26
2018-12-05T23:17:11.525Z,101746.70
2018-12-05T23:19:41.506Z,101740.45
2018-12-05T23:22:11.400Z,101739.44
2018-12-05T23:24:41.059Z,101736.73
2018-12-05T23:27:11.026Z,101734.02
2018-12-05T23:29:41.346Z,101733.93
2018-12-05T23:32:11.117Z,101730.30
2018-12-05T23:34:40.940Z,101717.62
2018-12-05T23:37:10.610Z,101724.05
2018-12-05T23:39:40.054Z,101715.30
2018-12-05T23:42:09.601Z,101709.91
2018-12-05T23:44:39.310Z,101714.11
2018-12-05T23:47:08.966Z,101713.09
2018-12-05T23:49:38.537Z,101709.46
2018-12-05T23:52:07.837Z,101706.72
2018-12-05T23:54:37.597Z,101702.60
2018-12-05T23:57:07.119Z,101706.48
2018-12-05T23:59:36.646Z,101701.27
